Time;durP1;ratioP1;P1;durP2;ratioP2;P2;SDS_P1;SDS_P2;PMS_P1;PMS_P2;Temp;Humidity;BMP_temperature;BMP_pressure;BME280_temperature;BME280_humidity;BME280_pressure;Samples;Min_cycle;Max_cycle;Signal;HPM_P1;HPM_P2
2022/08/21 00:01:11;;;;;;;15.00;13.40;;;;;;;25.44;72.65;100189.19;5065741;28;20033;-68
2022/08/21 00:03:36;;;;;;;17.17;13.10;;;;;;;25.46;72.60;100195.28;5063082;28;20036;-68
2022/08/21 00:06:02;;;;;;;13.13;11.82;;;;;;;25.44;72.83;100199.94;5058302;28;20060;-68
2022/08/21 00:08:28;;;;;;;13.63;12.23;;;;;;;25.50;72.59;100200.28;5054317;28;20032;-68
2022/08/21 00:10:54;;;;;;;14.30;12.80;;;;;;;25.59;72.47;100206.69;5067671;28;20063;-68
2022/08/21 00:13:19;;;;;;;13.57;11.25;;;;;;;25.64;72.24;100215.19;5079975;28;20391;-68
2022/08/21 00:15:46;;;;;;;13.23;11.82;;;;;;;25.72;71.97;100212.69;5069723;28;20390;-68
2022/08/21 00:18:12;;;;;;;11.60;10.40;;;;;;;25.73;71.80;100216.22;5072941;28;20070;-68
2022/08/21 00:20:39;;;;;;;13.30;11.02;;;;;;;25.70;71.65;100222.75;5063127;28;20045;-68
2022/08/21 00:23:05;;;;;;;12.73;11.32;;;;;;;25.63;71.55;100218.88;5054641;28;20029;-69
2022/08/21 00:25:31;;;;;;;13.63;11.00;;;;;;;25.62;71.23;100221.72;5059318;28;20089;-68
2022/08/21 00:27:56;;;;;;;11.57;9.23;;;;;;;25.61;70.83;100228.06;5093636;28;20465;-68
2022/08/21 00:30:25;;;;;;;10.02;8.93;;;;;;;25.65;70.31;100230.34;5072764;28;20067;-68
2022/08/21 00:32:52;;;;;;;13.55;9.88;;;;;;;25.71;69.68;100215.53;5071794;28;20446;-68
2022/08/21 00:35:21;;;;;;;11.00;8.80;;;;;;;25.75;69.08;100217.81;5073233;28;20104;-69
2022/08/21 00:37:46;;;;;;;10.45;8.07;;;;;;;25.77;68.48;100221.25;5073746;28;20056;-68
2022/08/21 00:40:16;;;;;;;11.90;7.97;;;;;;;25.74;68.31;100216.09;5073580;28;20400;-68
2022/08/21 00:42:43;;;;;;;8.43;7.28;;;;;;;25.70;68.07;100225.44;5074023;28;20028;-68
2022/08/21 00:45:10;;;;;;;9.00;6.30;;;;;;;25.70;68.14;100219.22;5073152;28;20043;-68
2022/08/21 00:47:36;;;;;;;6.43;5.45;;;;;;;25.65;67.79;100210.66;5073128;28;20093;-68
2022/08/21 00:50:04;;;;;;;9.25;5.93;;;;;;;25.61;67.89;100199.31;5072219;28;20032;-68
2022/08/21 00:52:33;;;;;;;8.95;5.95;;;;;;;25.51;67.76;100195.75;5078613;28;20089;-68
2022/08/21 00:55:00;;;;;;;9.68;6.72;;;;;;;25.47;67.86;100188.94;5078684;28;20028;-68
2022/08/21 00:57:30;;;;;;;7.72;5.75;;;;;;;25.43;67.94;100184.78;5053682;28;20045;-69
2022/08/21 00:59:59;;;;;;;8.57;5.88;;;;;;;25.38;68.24;100185.19;5054349;28;20035;-68
2022/08/21 01:02:25;;;;;;;9.18;6.30;;;;;;;25.35;68.19;100176.53;5072745;28;20071;-68
2022/08/21 01:04:51;;;;;;;11.07;7.05;;;;;;;25.32;68.35;100188.41;5073150;28;20063;-68
2022/08/21 01:07:17;;;;;;;8.77;6.03;;;;;;;25.30;68.56;100185.88;5055870;28;20033;-68
2022/08/21 01:09:43;;;;;;;9.00;6.68;;;;;;;25.28;68.51;100193.19;5069220;28;20524;-68
2022/08/21 01:12:10;;;;;;;9.07;6.38;;;;;;;25.25;68.48;100192.59;5067394;28;20063;-68
2022/08/21 01:14:36;;;;;;;10.55;7.63;;;;;;;25.12;68.79;100192.81;5062804;28;20507;-68
2022/08/21 01:17:03;;;;;;;11.88;7.57;;;;;;;25.01;69.11;100184.75;5082870;28;20036;-69
2022/08/21 01:19:29;;;;;;;11.05;7.70;;;;;;;24.73;69.97;100186.25;5073833;28;20098;-69
2022/08/21 01:21:55;;;;;;;12.10;7.13;;;;;;;24.59;70.69;100182.03;5055457;28;20036;-68
2022/08/21 01:24:21;;;;;;;9.35;6.75;;;;;;;24.64;70.82;100181.66;5064237;28;20055;-68
2022/08/21 01:26:47;;;;;;;9.88;6.80;;;;;;;24.71;70.55;100175.63;5053242;28;20136;-68
2022/08/21 01:29:31;;;;;;;9.85;7.20;;;;;;;24.83;70.03;100176.44;5053218;28;20037;-67
2022/08/21 01:31:59;;;;;;;9.48;7.18;;;;;;;24.90;69.81;100174.94;5055148;28;20100;-67
2022/08/21 01:34:24;;;;;;;10.10;7.15;;;;;;;24.85;70.02;100166.41;5077736;28;20071;-67
2022/08/21 01:36:50;;;;;;;12.95;8.55;;;;;;;24.73;70.42;100157.53;5064197;28;20489;-69
2022/08/21 01:39:15;;;;;;;9.65;7.93;;;;;;;24.69;70.87;100153.41;5089274;28;20114;-69
2022/08/21 01:41:41;;;;;;;9.27;7.68;;;;;;;24.68;71.03;100151.72;5073715;28;20040;-68
2022/08/21 01:44:07;;;;;;;14.20;9.38;;;;;;;24.54;71.61;100149.34;5063597;28;20037;-67
2022/08/21 01:46:32;;;;;;;11.15;8.35;;;;;;;24.43;72.20;100154.75;5065698;28;20043;-68
2022/08/21 01:48:58;;;;;;;12.07;8.13;;;;;;;24.40;72.26;100153.16;5060968;28;20040;-68
2022/08/21 01:51:24;;;;;;;9.57;7.90;;;;;;;24.41;72.08;100148.66;5056846;28;20112;-68
2022/08/21 01:53:50;;;;;;;13.95;10.27;;;;;;;24.41;72.21;100154.00;5073063;28;20353;-68
2022/08/21 01:56:16;;;;;;;12.02;9.13;;;;;;;24.42;72.17;100161.13;5072638;28;20059;-68
2022/08/21 01:58:44;;;;;;;14.18;9.40;;;;;;;24.42;72.32;100155.75;5057107;28;20464;-68
2022/08/21 02:01:10;;;;;;;16.38;10.70;;;;;;;24.34;72.76;100148.28;5056452;28;20037;-68
2022/08/21 02:03:36;;;;;;;14.38;9.48;;;;;;;24.22;73.29;100150.16;5068806;28;20380;-68
2022/08/21 02:06:04;;;;;;;13.57;10.57;;;;;;;24.22;73.62;100152.00;5076855;28;20094;-68
2022/08/21 02:08:29;;;;;;;13.38;9.90;;;;;;;24.25;73.39;100155.25;5071651;28;20033;-69
2022/08/21 02:10:55;;;;;;;13.55;10.65;;;;;;;24.27;73.53;100149.78;5076589;28;20083;-68
2022/08/21 02:13:21;;;;;;;15.98;11.13;;;;;;;24.31;73.35;100145.84;5077011;28;20488;-69
2022/08/21 02:15:46;;;;;;;19.13;12.70;;;;;;;24.34;73.26;100143.78;5075242;28;20036;-67
2022/08/21 02:18:13;;;;;;;14.35;11.05;;;;;;;24.36;73.39;100150.84;5077522;28;20033;-68
2022/08/21 02:20:42;;;;;;;12.75;10.85;;;;;;;24.25;73.70;100155.25;5057541;28;20037;-68
2022/08/21 02:23:09;;;;;;;13.77;11.00;;;;;;;24.14;74.68;100152.63;5069846;28;20033;-69
2022/08/21 02:25:35;;;;;;;12.88;11.57;;;;;;;24.08;75.08;100147.72;5064859;28;20044;-68
2022/08/21 02:28:09;;;;;;;15.65;12.35;;;;;;;24.09;75.45;100152.13;5069070;28;20093;-68
2022/08/21 02:30:38;;;;;;;20.48;14.70;;;;;;;24.11;75.40;100154.69;5071573;28;20027;-68
2022/08/21 02:33:07;;;;;;;17.50;12.73;;;;;;;24.18;75.33;100143.34;5061107;28;20040;-68
2022/08/21 02:35:33;;;;;;;16.48;12.77;;;;;;;24.26;74.84;100151.59;5068987;28;20434;-68
2022/08/21 02:38:03;;;;;;;15.30;13.23;;;;;;;24.29;74.82;100151.34;5058949;28;20028;-68
2022/08/21 02:40:32;;;;;;;20.10;14.88;;;;;;;24.28;74.99;100152.31;5069682;28;20052;-68
2022/08/21 02:42:59;;;;;;;17.02;14.68;;;;;;;24.27;75.28;100141.72;5075332;28;20040;-69
2022/08/21 02:45:28;;;;;;;19.08;13.68;;;;;;;24.28;75.06;100144.25;5072337;28;20032;-69
2022/08/21 02:47:59;;;;;;;15.82;12.93;;;;;;;24.33;74.95;100142.03;5055666;28;20025;-69
2022/08/21 02:50:28;;;;;;;13.60;11.75;;;;;;;24.33;74.76;100146.56;5055706;28;20036;-69
2022/08/21 02:52:54;;;;;;;14.55;11.40;;;;;;;24.30;74.89;100147.69;5055450;28;20040;-69
2022/08/21 02:55:21;;;;;;;12.45;10.65;;;;;;;24.24;75.31;100141.97;5054308;28;20101;-69
2022/08/21 02:57:47;;;;;;;12.00;10.00;;;;;;;24.19;75.52;100138.81;5055444;28;20036;-69
2022/08/21 03:00:13;;;;;;;10.25;9.02;;;;;;;24.17;75.56;100138.91;5088522;28;20033;-68
2022/08/21 03:02:39;;;;;;;11.07;8.30;;;;;;;24.21;75.29;100136.84;5071839;28;20119;-69
2022/08/21 03:05:06;;;;;;;10.15;8.45;;;;;;;24.24;75.23;100141.97;5070383;28;20123;-68
2022/08/21 03:07:32;;;;;;;8.48;6.90;;;;;;;24.30;74.54;100138.78;5070273;28;20036;-69
2022/08/21 03:09:57;;;;;;;9.40;6.97;;;;;;;24.27;74.65;100130.97;5072977;28;21741;-69
2022/08/21 03:12:23;;;;;;;7.40;6.57;;;;;;;24.26;74.40;100140.88;5076564;28;20084;-69
2022/08/21 03:14:49;;;;;;;6.03;5.43;;;;;;;24.31;74.19;100133.28;5071687;28;20041;-69
2022/08/21 03:17:14;;;;;;;5.90;4.93;;;;;;;24.25;74.21;100128.41;5066617;28;20043;-69
2022/08/21 03:19:40;;;;;;;5.20;4.60;;;;;;;24.21;74.31;100132.31;5073845;28;20123;-68
2022/08/21 03:22:05;;;;;;;5.25;4.75;;;;;;;24.31;74.03;100133.28;5054732;28;20440;-66
2022/08/21 03:24:31;;;;;;;5.40;4.90;;;;;;;24.33;73.72;100136.66;5049197;28;20060;-66
2022/08/21 03:26:56;;;;;;;5.43;4.60;;;;;;;24.40;73.43;100128.16;5066999;28;20449;-66
2022/08/21 03:29:22;;;;;;;5.40;4.88;;;;;;;24.32;73.83;100129.59;5073714;28;20032;-67
2022/08/21 03:31:47;;;;;;;5.20;4.43;;;;;;;24.37;73.45;100133.75;5066051;28;20446;-65
2022/08/21 03:34:13;;;;;;;5.43;4.45;;;;;;;24.34;73.60;100133.03;5074352;28;20041;-65
2022/08/21 03:36:39;;;;;;;5.10;4.43;;;;;;;24.39;73.50;100118.41;5074075;28;20140;-65
2022/08/21 03:39:05;;;;;;;7.47;5.25;;;;;;;24.40;73.53;100122.78;5067610;28;20123;-65
2022/08/21 03:41:30;;;;;;;5.70;4.70;;;;;;;24.36;73.52;100130.22;5071314;28;20476;-65
2022/08/21 03:43:56;;;;;;;5.78;4.28;;;;;;;24.27;73.93;100137.19;5054870;28;20055;-66
2022/08/21 03:46:21;;;;;;;5.55;4.18;;;;;;;24.43;73.44;100139.50;5054836;28;20036;-66
2022/08/21 03:48:47;;;;;;;4.82;4.38;;;;;;;24.48;73.00;100145.31;5069978;28;20399;-66
2022/08/21 03:51:12;;;;;;;6.60;4.40;;;;;;;24.67;72.44;100147.34;5054334;28;20115;-66
2022/08/21 03:53:37;;;;;;;5.18;4.60;;;;;;;24.73;72.01;100149.47;5060064;28;20064;-66
2022/08/21 03:56:04;;;;;;;4.65;4.25;;;;;;;24.65;71.97;100151.97;5065859;28;20041;-66
2022/08/21 03:58:29;;;;;;;4.65;4.25;;;;;;;24.65;72.34;100149.28;5062879;28;20044;-67
2022/08/21 04:00:58;;;;;;;5.55;4.60;;;;;;;24.64;72.24;100144.91;5059936;28;20037;-66
2022/08/21 04:03:25;;;;;;;5.65;5.13;;;;;;;24.64;72.52;100138.69;5066573;28;20095;-66
2022/08/21 04:05:51;;;;;;;6.90;5.03;;;;;;;24.70;72.34;100143.53;5072050;28;20115;-66
2022/08/21 04:08:18;;;;;;;5.68;5.07;;;;;;;24.64;72.45;100136.00;5060024;28;20066;-63
2022/08/21 04:10:46;;;;;;;5.25;4.75;;;;;;;24.49;72.93;100147.03;5054358;28;20036;-66
2022/08/21 04:13:11;;;;;;;6.25;5.30;;;;;;;24.49;72.91;100141.66;5061159;28;20068;-65
2022/08/21 04:15:38;;;;;;;7.07;4.93;;;;;;;24.48;73.11;100141.78;5069300;28;20064;-66
2022/08/21 04:18:05;;;;;;;5.63;5.13;;;;;;;24.37;73.49;100141.78;5071411;28;20127;-66
2022/08/21 04:20:30;;;;;;;7.13;5.43;;;;;;;24.34;73.69;100143.78;5066509;28;20102;-66
2022/08/21 04:22:56;;;;;;;6.03;4.68;;;;;;;24.29;73.91;100145.97;5058669;28;20551;-66
2022/08/21 04:25:25;;;;;;;5.28;4.78;;;;;;;24.23;74.12;100154.53;5054955;28;20123;-66
2022/08/21 04:27:50;;;;;;;6.15;4.85;;;;;;;24.22;74.29;100152.84;5068987;28;20469;-66
2022/08/21 04:30:16;;;;;;;7.85;5.40;;;;;;;24.27;74.15;100158.66;5053499;28;20033;-66
2022/08/21 04:32:44;;;;;;;6.15;5.55;;;;;;;24.36;73.80;100158.88;5071686;28;20086;-66
2022/08/21 04:35:10;;;;;;;5.30;4.80;;;;;;;24.40;73.71;100153.16;5058634;28;20029;-66
2022/08/21 04:37:36;;;;;;;5.97;5.07;;;;;;;24.31;73.97;100154.75;5068232;28;20048;-66
2022/08/21 04:40:03;;;;;;;6.20;5.20;;;;;;;24.42;73.96;100159.28;5073132;28;20052;-66
2022/08/21 04:42:29;;;;;;;5.50;4.90;;;;;;;24.36;73.98;100161.56;5073836;28;20074;-67
2022/08/21 04:44:56;;;;;;;6.40;5.28;;;;;;;24.24;74.62;100163.44;5064794;28;20036;-66
2022/08/21 04:47:22;;;;;;;5.97;5.38;;;;;;;24.22;74.93;100162.72;5052666;28;20037;-66
2022/08/21 04:49:48;;;;;;;6.15;5.10;;;;;;;24.17;75.33;100163.06;5072615;28;20047;-65
2022/08/21 04:52:16;;;;;;;6.28;5.65;;;;;;;24.22;74.94;100165.41;5055148;28;20492;-66
2022/08/21 04:54:45;;;;;;;5.65;5.15;;;;;;;24.28;74.74;100165.75;5061267;28;20044;-66
2022/08/21 04:57:11;;;;;;;5.45;4.95;;;;;;;24.45;74.08;100166.22;5072398;28;20028;-66
2022/08/21 04:59:40;;;;;;;6.28;5.68;;;;;;;24.30;75.12;100169.16;5069414;28;20032;-66
2022/08/21 05:02:08;;;;;;;6.25;5.65;;;;;;;24.32;75.09;100169.88;5054947;28;20041;-67
2022/08/21 05:04:38;;;;;;;5.35;4.55;;;;;;;24.22;75.44;100176.16;5057523;28;20036;-66
2022/08/21 05:07:07;;;;;;;7.60;5.43;;;;;;;24.28;75.16;100176.47;5057161;28;20028;-66
2022/08/21 05:09:33;;;;;;;8.27;5.78;;;;;;;24.12;75.92;100175.19;5065362;28;20044;-66
2022/08/21 05:12:02;;;;;;;7.10;5.05;;;;;;;24.28;75.14;100176.47;5051150;28;20108;-66
2022/08/21 05:14:27;;;;;;;5.07;4.68;;;;;;;24.33;74.58;100185.00;5054699;28;20032;-67
2022/08/21 05:16:53;;;;;;;6.90;5.35;;;;;;;24.21;75.29;100186.00;5052431;28;20468;-66
2022/08/21 05:19:18;;;;;;;4.70;4.18;;;;;;;24.44;74.03;100192.22;5072488;28;20068;-66
2022/08/21 05:21:47;;;;;;;4.05;3.65;;;;;;;24.60;73.41;100196.31;5069478;28;20124;-66
2022/08/21 05:24:13;;;;;;;5.07;4.55;;;;;;;24.74;72.82;100188.81;5097910;28;20037;-66
2022/08/21 05:26:39;;;;;;;5.75;4.50;;;;;;;24.84;72.36;100194.25;5051377;28;20064;-66
2022/08/21 05:29:05;;;;;;;6.70;6.05;;;;;;;24.78;72.41;100206.38;5053666;28;20065;-66
2022/08/21 05:31:30;;;;;;;6.38;5.68;;;;;;;24.76;72.47;100197.59;5064345;28;20028;-66
2022/08/21 05:33:56;;;;;;;5.88;5.28;;;;;;;24.67;72.63;100200.22;5071220;28;20034;-66
2022/08/21 05:36:22;;;;;;;5.22;4.72;;;;;;;24.56;73.16;100201.09;5074550;28;20349;-67
2022/08/21 05:38:47;;;;;;;6.35;5.03;;;;;;;24.62;72.77;100189.00;5075812;28;20044;-65
2022/08/21 05:41:13;;;;;;;6.78;5.20;;;;;;;24.67;72.67;100192.16;5075395;28;20036;-66
2022/08/21 05:43:38;;;;;;;6.35;5.75;;;;;;;24.59;72.56;100195.47;5076659;28;20033;-66
2022/08/21 05:46:05;;;;;;;6.18;5.30;;;;;;;24.65;72.44;100196.78;5063576;28;20048;-66
2022/08/21 05:48:31;;;;;;;6.20;5.60;;;;;;;24.59;72.85;100195.47;5064924;28;20059;-66
2022/08/21 05:50:57;;;;;;;6.18;5.57;;;;;;;24.37;73.69;100199.03;5079943;28;20033;-66
2022/08/21 05:53:24;;;;;;;6.07;5.47;;;;;;;24.29;73.86;100196.97;5071604;28;20032;-66
2022/08/21 05:55:50;;;;;;;7.95;6.47;;;;;;;24.22;74.10;100194.94;5074532;28;20040;-66
2022/08/21 05:58:18;;;;;;;7.70;5.88;;;;;;;24.23;74.00;100194.81;5070015;28;20460;-66
2022/08/21 06:00:46;;;;;;;8.00;5.63;;;;;;;24.26;74.11;100191.03;5059164;28;20024;-67
2022/08/21 06:03:16;;;;;;;7.72;5.57;;;;;;;24.23;74.68;100199.31;5066398;28;20415;-66
2022/08/21 06:05:42;;;;;;;6.97;5.32;;;;;;;24.16;75.23;100196.28;5063393;28;20032;-66
2022/08/21 06:08:07;;;;;;;8.43;5.90;;;;;;;24.00;75.79;100188.59;5070953;28;20033;-66
2022/08/21 06:10:33;;;;;;;8.02;6.65;;;;;;;23.88;78.36;100196.78;5056174;28;20037;-66
2022/08/21 06:12:58;;;;;;;11.07;6.90;;;;;;;23.65;80.14;100199.44;5065588;28;20033;-66
2022/08/21 06:15:24;;;;;;;7.55;6.60;;;;;;;23.46;81.92;100199.16;5080006;28;20048;-66
2022/08/21 06:17:49;;;;;;;11.65;8.05;;;;;;;23.11;100.00;100200.94;5076465;28;20043;-66
2022/08/21 06:20:15;;;;;;;8.50;7.07;;;;;;;23.00;96.58;100195.56;5076065;28;20527;-65
2022/08/21 06:22:40;;;;;;;7.18;6.25;;;;;;;23.09;100.00;100196.66;5076385;28;20025;-65
2022/08/21 06:25:06;;;;;;;7.32;6.60;;;;;;;23.27;93.58;100202.44;5073386;28;20045;-66
2022/08/21 06:27:31;;;;;;;10.63;7.22;;;;;;;23.42;90.93;100205.75;5076587;28;20162;-66
2022/08/21 06:29:57;;;;;;;6.97;6.28;;;;;;;23.47;89.83;100200.91;5070549;28;20036;-65
2022/08/21 06:32:22;;;;;;;7.80;6.72;;;;;;;23.48;88.57;100208.81;5056290;28;20086;-65
2022/08/21 06:34:48;;;;;;;7.45;6.03;;;;;;;23.47;87.51;100206.25;5055966;28;20145;-65
2022/08/21 06:37:13;;;;;;;7.85;5.78;;;;;;;23.63;85.83;100206.75;5056093;28;20033;-65
2022/08/21 06:39:39;;;;;;;6.03;5.25;;;;;;;23.73;84.95;100205.06;5068819;28;20145;-66
2022/08/21 06:42:05;;;;;;;6.07;5.25;;;;;;;23.78;84.19;100205.59;5066243;28;20033;-65
2022/08/21 06:44:30;;;;;;;6.35;5.07;;;;;;;23.82;83.80;100212.41;5082870;28;20044;-66
2022/08/21 06:46:56;;;;;;;5.03;4.50;;;;;;;23.84;83.52;100209.59;5074195;28;20036;-65
2022/08/21 06:49:22;;;;;;;6.47;4.60;;;;;;;23.80;83.26;100209.00;5055844;28;20131;-65
2022/08/21 06:51:47;;;;;;;6.35;4.15;;;;;;;23.89;83.19;100214.59;5073699;28;20059;-65
2022/08/21 06:54:13;;;;;;;6.25;4.35;;;;;;;24.10;82.40;100220.94;5075212;28;20112;-65
2022/08/21 06:56:38;;;;;;;6.85;5.40;;;;;;;24.18;80.97;100223.00;5075838;28;20031;-65
2022/08/21 06:59:05;;;;;;;4.32;3.92;;;;;;;24.26;80.28;100221.41;5075802;28;20376;-65
2022/08/21 07:01:31;;;;;;;5.13;4.30;;;;;;;24.31;79.69;100219.19;5074880;28;20099;-65
2022/08/21 07:03:57;;;;;;;3.90;3.50;;;;;;;24.28;79.30;100219.44;5073379;28;20094;-65
2022/08/21 07:06:23;;;;;;;4.20;3.80;;;;;;;24.38;78.79;100221.34;5074364;28;20383;-65
2022/08/21 07:08:48;;;;;;;4.80;4.40;;;;;;;24.63;77.59;100222.94;5074736;28;20036;-66
2022/08/21 07:11:18;;;;;;;4.10;3.45;;;;;;;24.85;76.48;100219.28;5075528;28;20033;-66
2022/08/21 07:13:43;;;;;;;4.00;3.60;;;;;;;25.07;75.34;100219.19;5075401;28;20040;-65
2022/08/21 07:16:09;;;;;;;3.60;3.20;;;;;;;25.09;74.15;100225.31;5074697;28;20024;-65
2022/08/21 07:18:34;;;;;;;3.00;2.70;;;;;;;24.98;74.03;100218.16;5075537;28;20028;-66
2022/08/21 07:21:05;;;;;;;3.40;2.47;;;;;;;25.07;74.02;100213.81;5074605;28;20111;-65
2022/08/21 07:23:34;;;;;;;2.55;2.22;;;;;;;25.06;73.39;100212.97;5054889;28;20094;-65
2022/08/21 07:26:00;;;;;;;2.38;2.17;;;;;;;25.11;73.17;100212.63;5057857;28;20037;-66
2022/08/21 07:28:26;;;;;;;1.95;1.60;;;;;;;25.40;72.24;100214.63;5053063;28;20060;-66
2022/08/21 07:30:54;;;;;;;1.92;1.77;;;;;;;25.62;71.25;100213.66;5053981;28;20087;-66
2022/08/21 07:33:20;;;;;;;2.00;1.80;;;;;;;25.70;70.45;100206.59;5053203;28;20036;-66
2022/08/21 07:35:45;;;;;;;1.80;1.60;;;;;;;25.92;69.80;100210.97;5055058;28;20029;-66
2022/08/21 07:38:11;;;;;;;3.63;1.70;;;;;;;26.08;69.50;100207.75;5054856;28;20032;-66
2022/08/21 07:40:36;;;;;;;1.85;1.60;;;;;;;26.01;69.24;100211.97;5062240;28;20056;-66
2022/08/21 07:43:02;;;;;;;2.38;1.88;;;;;;;25.70;69.80;100214.66;5073597;28;20041;-65
2022/08/21 07:45:27;;;;;;;2.08;1.80;;;;;;;25.71;69.97;100215.53;5054203;28;20033;-65
2022/08/21 07:47:53;;;;;;;2.40;2.20;;;;;;;25.45;70.86;100215.09;5054867;28;20082;-65
2022/08/21 07:50:19;;;;;;;2.92;2.60;;;;;;;25.51;70.17;100214.56;5055789;28;20043;-67
2022/08/21 07:52:45;;;;;;;2.40;2.13;;;;;;;25.91;68.70;100213.81;5051940;28;20117;-66
2022/08/21 07:55:14;;;;;;;2.70;2.40;;;;;;;26.35;67.48;100204.44;5094044;28;20037;-66
2022/08/21 07:57:40;;;;;;;2.38;2.03;;;;;;;25.92;66.60;100224.41;5052753;28;20028;-68
2022/08/21 08:00:10;;;;;;;2.22;1.98;;;;;;;25.28;68.00;100225.47;5075549;28;20036;-67
2022/08/21 08:02:35;;;;;;;3.22;2.50;;;;;;;24.75;69.46;100228.13;5077478;28;20037;-67
2022/08/21 08:05:05;;;;;;;3.30;2.17;;;;;;;24.81;69.71;100216.84;5069637;28;20033;-65
2022/08/21 08:07:31;;;;;;;3.47;2.92;;;;;;;24.12;71.11;100213.59;5071613;28;20055;-65
2022/08/21 08:09:58;;;;;;;4.10;2.72;;;;;;;24.39;71.06;100215.06;5074678;28;20118;-67
2022/08/21 08:12:28;;;;;;;2.95;2.58;;;;;;;24.61;70.81;100201.56;5074318;28;20452;-66
2022/08/21 08:14:57;;;;;;;3.10;2.80;;;;;;;24.79;70.52;100205.41;5083033;28;20036;-65
2022/08/21 08:17:23;;;;;;;3.08;2.78;;;;;;;24.58;71.02;100204.50;5082482;28;20482;-66
2022/08/21 08:19:49;;;;;;;3.10;2.80;;;;;;;24.38;71.22;100198.09;5075061;28;20067;-66
2022/08/21 08:22:19;;;;;;;4.10;3.20;;;;;;;24.22;71.56;100206.53;5080131;28;20487;-66
2022/08/21 08:24:48;;;;;;;3.47;3.00;;;;;;;24.42;71.17;100204.09;5090270;28;20032;-66
2022/08/21 08:27:13;;;;;;;3.10;2.80;;;;;;;24.77;69.91;100212.72;5093170;28;20038;-66
2022/08/21 08:29:39;;;;;;;3.20;2.90;;;;;;;24.33;71.45;100216.38;5093138;28;20106;-66
2022/08/21 08:32:08;;;;;;;3.17;2.88;;;;;;;24.37;71.38;100219.66;5091174;28;20067;-67
2022/08/21 08:34:38;;;;;;;2.92;2.60;;;;;;;24.41;71.23;100229.19;5060314;28;20037;-66
2022/08/21 08:37:05;;;;;;;3.95;3.22;;;;;;;24.22;72.26;100221.78;5067564;28;20037;-66
2022/08/21 08:39:30;;;;;;;4.35;3.10;;;;;;;24.04;72.89;100222.28;5066644;28;20095;-65
2022/08/21 08:42:01;;;;;;;3.38;3.08;;;;;;;24.00;73.42;100217.28;5084764;28;20032;-66
2022/08/21 08:44:28;;;;;;;3.97;3.20;;;;;;;24.21;72.02;100222.72;5071633;28;20045;-66
2022/08/21 08:46:55;;;;;;;4.07;3.28;;;;;;;24.05;72.70;100223.13;5071465;28;20074;-67
2022/08/21 08:49:29;;;;;;;4.15;3.20;;;;;;;24.14;72.63;100218.84;5072057;28;20531;-67
2022/08/21 08:52:06;;;;;;;3.30;2.95;;;;;;;23.91;73.49;100223.38;5066084;28;20048;-67
2022/08/21 08:54:39;;;;;;;3.22;2.92;;;;;;;24.18;72.62;100213.13;5062015;28;20072;-67
2022/08/21 08:57:10;;;;;;;3.47;2.92;;;;;;;24.15;72.51;100224.09;5071948;28;20040;-66
2022/08/21 08:59:42;;;;;;;3.45;2.65;;;;;;;24.07;73.04;100218.50;5070730;28;20020;-67
2022/08/21 09:02:11;;;;;;;4.05;3.00;;;;;;;23.96;72.94;100224.72;5069938;28;20024;-67
2022/08/21 09:04:37;;;;;;;3.88;2.70;;;;;;;24.14;72.16;100226.88;5053723;28;20033;-67
2022/08/21 09:07:14;;;;;;;4.60;3.08;;;;;;;23.98;72.19;100229.97;5069984;28;20036;-67
2022/08/21 09:10:04;;;;;;;3.88;3.00;;;;;;;23.84;71.54;100226.53;5063170;28;20430;-68
2022/08/21 09:12:39;;;;;;;3.58;2.67;;;;;;;23.78;71.50;100237.78;5070136;28;20044;-68
2022/08/21 09:15:27;;;;;;;3.45;2.78;;;;;;;24.03;70.51;100227.78;5069783;28;20039;-68
2022/08/21 09:18:02;;;;;;;5.35;2.88;;;;;;;24.32;69.91;100220.88;5064033;28;20044;-67
2022/08/21 09:20:49;;;;;;;2.63;2.42;;;;;;;24.24;69.63;100217.97;5070097;28;20390;-68
2022/08/21 09:23:28;;;;;;;2.80;2.60;;;;;;;24.17;69.14;100224.81;5070644;28;20100;-68
2022/08/21 09:26:05;;;;;;;3.42;2.63;;;;;;;24.23;68.88;100227.00;5069170;28;20040;-66
2022/08/21 09:28:33;;;;;;;3.65;2.53;;;;;;;24.80;67.89;100222.38;5070100;28;20128;-68
2022/08/21 09:31:02;;;;;;;2.95;2.25;;;;;;;25.02;66.82;100234.88;5070949;28;20020;-68
2022/08/21 09:33:28;;;;;;;3.50;2.30;;;;;;;24.67;67.23;100222.53;5055430;28;20032;-67
2022/08/21 09:35:58;;;;;;;3.13;2.50;;;;;;;24.98;66.35;100214.63;5054954;28;20044;-67
2022/08/21 09:38:33;;;;;;;2.97;2.40;;;;;;;25.40;65.43;100217.31;5055340;28;20119;-67
2022/08/21 09:41:05;;;;;;;4.68;2.58;;;;;;;25.01;65.73;100217.03;5065229;28;20510;-67
2022/08/21 09:43:32;;;;;;;3.33;2.58;;;;;;;25.25;65.03;100231.09;5070620;28;20041;-67
2022/08/21 09:46:11;;;;;;;2.80;2.40;;;;;;;25.10;66.18;100221.66;5072331;28;20499;-67
2022/08/21 09:48:45;;;;;;;2.78;2.47;;;;;;;24.89;66.33;100223.44;5071835;28;20123;-65
2022/08/21 09:51:20;;;;;;;3.22;2.70;;;;;;;24.77;66.82;100220.78;5073146;28;20020;-66
2022/08/21 09:53:54;;;;;;;4.10;2.80;;;;;;;24.38;67.49;100234.78;5067204;28;20028;-67
2022/08/21 09:59:37;;;;;;;4.05;2.50;;;;;;;24.29;68.32;100226.50;5064103;28;20047;-65
2022/08/21 10:02:32;;;;;;;3.83;2.75;;;;;;;24.22;69.06;100225.31;5070095;28;20150;-65
2022/08/21 10:05:16;;;;;;;4.50;2.95;;;;;;;23.97;69.20;100228.25;5070324;28;20476;-64
2022/08/21 10:07:42;;;;;;;3.78;2.78;;;;;;;24.20;69.24;100219.19;5069242;28;20021;-66
2022/08/21 10:10:25;;;;;;;3.65;3.00;;;;;;;24.14;70.29;100217.03;5067136;28;20034;-64
2022/08/21 10:13:10;;;;;;;3.78;2.67;;;;;;;24.15;70.10;100220.56;5070282;28;20234;-65
2022/08/21 10:16:02;;;;;;;3.33;2.80;;;;;;;24.25;70.14;100224.19;5068817;28;20028;-65
2022/08/21 10:18:34;;;;;;;3.28;2.67;;;;;;;24.17;70.05;100227.50;5070331;28;20033;-65
2022/08/21 10:21:07;;;;;;;4.60;2.45;;;;;;;24.19;69.89;100230.94;5072050;28;20024;-66
2022/08/21 10:23:45;;;;;;;7.90;6.13;;;;;;;24.38;69.38;100234.78;5073883;28;20037;-64
2022/08/21 10:26:28;;;;;;;4.45;3.35;;;;;;;24.03;70.77;100230.44;5072503;28;20071;-64
2022/08/21 10:29:00;;;;;;;7.30;5.95;;;;;;;24.27;69.42;100238.34;5072713;28;20081;-65
2022/08/21 10:31:34;;;;;;;4.90;3.30;;;;;;;24.28;69.48;100238.22;5073037;28;20086;-65
2022/08/21 10:34:17;;;;;;;4.00;3.10;;;;;;;24.23;69.67;100235.06;5074633;28;20044;-66
2022/08/21 10:37:22;;;;;;;5.75;3.78;;;;;;;24.50;69.10;100233.84;5074460;28;20037;-64
2022/08/21 10:40:03;;;;;;;5.50;2.95;;;;;;;24.72;68.13;100244.50;5049648;28;20435;-65
2022/08/21 10:42:35;;;;;;;4.05;2.95;;;;;;;24.55;68.81;100239.69;5073025;28;20048;-67
2022/08/21 10:45:24;;;;;;;4.07;2.90;;;;;;;24.39;69.37;100249.97;5068993;28;20033;-66
2022/08/21 10:48:04;;;;;;;4.25;3.55;;;;;;;24.46;69.17;100248.50;5070906;28;20040;-67
2022/08/21 10:50:42;;;;;;;6.13;3.60;;;;;;;24.40;69.52;100255.19;5072781;28;20037;-67
2022/08/21 10:53:25;;;;;;;3.75;2.65;;;;;;;24.12;69.61;100248.50;5071497;28;20040;-65
2022/08/21 10:55:57;;;;;;;3.05;2.70;;;;;;;24.27;69.36;100252.63;5073232;28;20110;-65
2022/08/21 10:58:30;;;;;;;3.87;3.00;;;;;;;24.33;69.11;100254.81;5072335;28;20025;-64
2022/08/21 11:01:07;;;;;;;4.05;3.50;;;;;;;24.31;69.21;100266.66;5072188;28;20027;-65
2022/08/21 11:03:34;;;;;;;4.65;3.08;;;;;;;24.17;69.86;100264.22;5090010;28;20445;-66
2022/08/21 11:06:07;;;;;;;3.75;3.00;;;;;;;24.09;70.04;100259.47;5071283;28;20031;-65
2022/08/21 11:08:46;;;;;;;5.38;2.90;;;;;;;24.04;70.45;100259.84;5071736;28;20043;-66
2022/08/21 11:11:27;;;;;;;3.30;2.45;;;;;;;24.17;69.57;100267.75;5068036;28;20427;-65
2022/08/21 11:14:09;;;;;;;4.13;2.50;;;;;;;24.11;69.68;100262.91;5072455;28;20045;-64
2022/08/21 11:16:41;;;;;;;3.23;2.50;;;;;;;24.16;69.66;100268.75;5070512;28;20028;-65
2022/08/21 11:19:09;;;;;;;3.20;2.47;;;;;;;24.13;69.69;100273.50;5073175;28;20498;-65
2022/08/21 11:21:44;;;;;;;3.60;2.78;;;;;;;23.99;71.06;100267.41;5073985;28;20025;-65
2022/08/21 11:24:12;;;;;;;3.95;2.17;;;;;;;24.09;70.32;100271.06;5055653;28;20036;-66
2022/08/21 11:27:03;;;;;;;3.13;2.10;;;;;;;24.08;70.86;100266.66;5065153;28;20032;-65
2022/08/21 11:29:39;;;;;;;3.10;2.25;;;;;;;24.15;70.15;100275.09;5071857;28;20053;-66
2022/08/21 11:32:26;;;;;;;3.35;2.10;;;;;;;23.98;70.23;100283.66;5065728;28;20036;-65